sensor_id;sensor_type;location;lat;lon;timestamp;pressure;altitude;pressure_sealevel;temperature;humidity
19795;BME280;10057;59.402;17.866;2023-05-10T00:01:26;101850.59;;;10.60;45.06
19795;BME280;10057;59.402;17.866;2023-05-10T00:03:53;101849.75;;;10.58;45.27
19795;BME280;10057;59.402;17.866;2023-05-10T00:06:20;101848.88;;;10.57;45.27
19795;BME280;10057;59.402;17.866;2023-05-10T00:08:46;101855.09;;;10.55;44.93
19795;BME280;10057;59.402;17.866;2023-05-10T00:11:13;101853.41;;;10.51;45.29
19795;BME280;10057;59.402;17.866;2023-05-10T00:13:40;101853.47;;;10.48;45.84
19795;BME280;10057;59.402;17.866;2023-05-10T00:16:09;101856.19;;;10.44;45.51
19795;BME280;10057;59.402;17.866;2023-05-10T00:18:36;101852.72;;;10.41;45.68
19795;BME280;10057;59.402;17.866;2023-05-10T00:21:04;101849.22;;;10.39;45.71
19795;BME280;10057;59.402;17.866;2023-05-10T00:23:31;101849.25;;;10.37;45.93
19795;BME280;10057;59.402;17.866;2023-05-10T00:25:58;101850.16;;;10.35;45.67
19795;BME280;10057;59.402;17.866;2023-05-10T00:28:27;101851.94;;;10.36;45.64
19795;BME280;10057;59.402;17.866;2023-05-10T00:30:57;101850.28;;;10.30;46.15
19795;BME280;10057;59.402;17.866;2023-05-10T00:33:24;101849.44;;;10.27;46.32
19795;BME280;10057;59.402;17.866;2023-05-10T00:35:50;101853.00;;;10.24;46.64
19795;BME280;10057;59.402;17.866;2023-05-10T00:38:17;101856.56;;;10.23;46.30
19795;BME280;10057;59.402;17.866;2023-05-10T00:40:44;101854.78;;;10.22;46.21
19795;BME280;10057;59.402;17.866;2023-05-10T00:43:11;101857.53;;;10.19;46.60
19795;BME280;10057;59.402;17.866;2023-05-10T00:45:40;101853.13;;;10.16;46.43
19795;BME280;10057;59.402;17.866;2023-05-10T00:48:07;101850.50;;;10.16;46.90
19795;BME280;10057;59.402;17.866;2023-05-10T00:50:34;101848.75;;;10.14;46.87
19795;BME280;10057;59.402;17.866;2023-05-10T00:53:02;101856.72;;;10.14;46.58
19795;BME280;10057;59.402;17.866;2023-05-10T00:55:29;101851.41;;;10.14;46.84
19795;BME280;10057;59.402;17.866;2023-05-10T00:57:56;101844.38;;;10.13;47.06
19795;BME280;10057;59.402;17.866;2023-05-10T01:00:23;101846.16;;;10.11;46.86
19795;BME280;10057;59.402;17.866;2023-05-10T01:02:50;101847.91;;;10.12;46.68
19795;BME280;10057;59.402;17.866;2023-05-10T01:05:17;101839.13;;;10.10;47.40
19795;BME280;10057;59.402;17.866;2023-05-10T01:07:44;101840.03;;;10.07;47.24
19795;BME280;10057;59.402;17.866;2023-05-10T01:10:11;101843.66;;;10.03;46.88
19795;BME280;10057;59.402;17.866;2023-05-10T01:12:40;101836.66;;;9.99;47.38
19795;BME280;10057;59.402;17.866;2023-05-10T01:15:10;101833.19;;;9.95;47.40
19795;BME280;10057;59.402;17.866;2023-05-10T01:17:38;101831.50;;;9.90;47.33
19795;BME280;10057;59.402;17.866;2023-05-10T01:20:07;101837.72;;;9.87;47.66
19795;BME280;10057;59.402;17.866;2023-05-10T01:33:55;101837.94;;;9.73;47.29
19795;BME280;10057;59.402;17.866;2023-05-10T01:39:24;101848.72;;;9.64;47.63
19795;BME280;10057;59.402;17.866;2023-05-10T01:41:57;101837.34;;;9.58;47.88
19795;BME280;10057;59.402;17.866;2023-05-10T01:50:15;101850.69;;;9.52;47.74
19795;BME280;10057;59.402;17.866;2023-05-10T01:52:49;101841.84;;;9.51;48.31
19795;BME280;10057;59.402;17.866;2023-05-10T01:55:20;101852.47;;;9.49;48.37
19795;BME280;10057;59.402;17.866;2023-05-10T01:57:51;101858.72;;;9.47;48.17
19795;BME280;10057;59.402;17.866;2023-05-10T02:00:19;101850.75;;;9.45;48.53
19795;BME280;10057;59.402;17.866;2023-05-10T02:02:48;101851.69;;;9.43;48.36
19795;BME280;10057;59.402;17.866;2023-05-10T02:05:17;101851.69;;;9.43;48.58
19795;BME280;10057;59.402;17.866;2023-05-10T02:07:44;101854.41;;;9.38;48.60
19795;BME280;10057;59.402;17.866;2023-05-10T02:10:12;101855.31;;;9.37;48.58
19795;BME280;10057;59.402;17.866;2023-05-10T02:12:45;101847.41;;;9.34;48.72
19795;BME280;10057;59.402;17.866;2023-05-10T02:15:16;101851.00;;;9.30;48.79
19795;BME280;10057;59.402;17.866;2023-05-10T02:17:46;101848.34;;;9.29;48.50
19795;BME280;10057;59.402;17.866;2023-05-10T02:20:13;101851.91;;;9.26;48.62
19795;BME280;10057;59.402;17.866;2023-05-10T02:22:44;101855.50;;;9.22;48.37
19795;BME280;10057;59.402;17.866;2023-05-10T02:25:13;101849.41;;;9.17;49.16
19795;BME280;10057;59.402;17.866;2023-05-10T02:27:41;101853.06;;;9.10;49.07
19795;BME280;10057;59.402;17.866;2023-05-10T02:30:10;101858.41;;;9.04;48.68
19795;BME280;10057;59.402;17.866;2023-05-10T02:32:37;101859.41;;;8.96;49.23
19795;BME280;10057;59.402;17.866;2023-05-10T02:35:05;101854.13;;;8.93;49.34
19795;BME280;10057;59.402;17.866;2023-05-10T02:37:33;101848.84;;;8.93;49.88
19795;BME280;10057;59.402;17.866;2023-05-10T02:40:01;101855.09;;;8.89;48.97
19795;BME280;10057;59.402;17.866;2023-05-10T02:42:31;101855.13;;;8.86;49.42
19795;BME280;10057;59.402;17.866;2023-05-10T02:45:00;101852.44;;;8.88;49.47
19795;BME280;10057;59.402;17.866;2023-05-10T02:47:30;101851.59;;;8.84;49.37
19795;BME280;10057;59.402;17.866;2023-05-10T02:49:57;101846.34;;;8.81;49.67
19795;BME280;10057;59.402;17.866;2023-05-10T02:52:28;101849.00;;;8.81;49.50
19795;BME280;10057;59.402;17.866;2023-05-10T02:54:58;101853.50;;;8.71;49.45
19795;BME280;10057;59.402;17.866;2023-05-10T02:57:32;101854.47;;;8.66;50.00
19795;BME280;10057;59.402;17.866;2023-05-10T03:00:01;101850.97;;;8.64;50.09
19795;BME280;10057;59.402;17.866;2023-05-10T03:02:29;101853.59;;;8.64;50.01
19795;BME280;10057;59.402;17.866;2023-05-10T03:04:57;101856.31;;;8.59;50.53
19795;BME280;10057;59.402;17.866;2023-05-10T03:07:24;101851.09;;;8.53;50.04
19795;BME280;10057;59.402;17.866;2023-05-10T03:09:51;101844.09;;;8.49;50.83
19795;BME280;10057;59.402;17.866;2023-05-10T03:12:43;101859.09;;;8.48;50.67
19795;BME280;10057;59.402;17.866;2023-05-10T03:15:52;101859.06;;;8.51;50.71
19795;BME280;10057;59.402;17.866;2023-05-10T03:18:29;101852.81;;;8.54;50.50
19795;BME280;10057;59.402;17.866;2023-05-10T03:21:03;101850.16;;;8.57;50.89
19795;BME280;10057;59.402;17.866;2023-05-10T03:23:36;101851.91;;;8.60;50.32
19795;BME280;10057;59.402;17.866;2023-05-10T03:26:05;101858.94;;;8.61;50.97
19795;BME280;10057;59.402;17.866;2023-05-10T03:28:36;101856.28;;;8.61;51.03
19795;BME280;10057;59.402;17.866;2023-05-10T03:31:04;101855.41;;;8.62;50.92
19795;BME280;10057;59.402;17.866;2023-05-10T03:33:32;101855.41;;;8.62;50.98
19795;BME280;10057;59.402;17.866;2023-05-10T03:35:59;101858.88;;;8.67;50.96
19795;BME280;10057;59.402;17.866;2023-05-10T03:38:26;101859.63;;;8.75;51.00
19795;BME280;10057;59.402;17.866;2023-05-10T03:40:55;101859.56;;;8.83;51.27
19795;BME280;10057;59.402;17.866;2023-05-10T03:43:22;101851.53;;;8.89;51.51
19795;BME280;10057;59.402;17.866;2023-05-10T03:45:49;101854.09;;;8.96;51.27
19795;BME280;10057;59.402;17.866;2023-05-10T03:48:15;101859.28;;;9.04;51.23
19795;BME280;10057;59.402;17.866;2023-05-10T03:50:42;101860.09;;;9.11;51.52
19795;BME280;10057;59.402;17.866;2023-05-10T03:53:09;101860.91;;;9.14;50.55
19795;BME280;10057;59.402;17.866;2023-05-10T03:55:36;101856.47;;;9.18;50.98
19795;BME280;10057;59.402;17.866;2023-05-10T03:58:02;101856.38;;;9.24;51.30
19795;BME280;10057;59.402;17.866;2023-05-10T04:00:29;101862.44;;;9.32;51.06
19795;BME280;10057;59.402;17.866;2023-05-10T04:02:56;101855.28;;;9.40;51.33
19795;BME280;10057;59.402;17.866;2023-05-10T04:05:23;101861.34;;;9.45;51.03
19795;BME280;10057;59.402;17.866;2023-05-10T04:07:50;101859.53;;;9.51;50.81
19795;BME280;10057;59.402;17.866;2023-05-10T04:10:17;101858.53;;;9.56;50.75
19795;BME280;10057;59.402;17.866;2023-05-10T04:12:44;101858.50;;;9.61;50.87
19795;BME280;10057;59.402;17.866;2023-05-10T04:15:11;101854.84;;;9.68;50.72
19795;BME280;10057;59.402;17.866;2023-05-10T04:17:38;101854.72;;;9.74;50.58
19795;BME280;10057;59.402;17.866;2023-05-10T04:20:05;101851.13;;;9.80;51.12
19795;BME280;10057;59.402;17.866;2023-05-10T04:22:32;101855.44;;;9.85;50.76
19795;BME280;10057;59.402;17.866;2023-05-10T04:24:59;101857.97;;;9.93;50.50
19795;BME280;10057;59.402;17.866;2023-05-10T04:27:26;101853.44;;;10.00;50.45
19795;BME280;10057;59.402;17.866;2023-05-10T04:29:53;101858.59;;;10.07;50.40
19795;BME280;10057;59.402;17.866;2023-05-10T04:32:20;101849.66;;;10.13;50.86
19795;BME280;10057;59.402;17.866;2023-05-10T04:34:47;101857.53;;;10.19;50.24
19795;BME280;10057;59.402;17.866;2023-05-10T04:37:13;101868.94;;;10.26;50.25
19795;BME280;10057;59.402;17.866;2023-05-10T04:39:40;101858.22;;;10.30;50.77
19795;BME280;10057;59.402;17.866;2023-05-10T04:42:08;101853.66;;;10.38;50.17
19795;BME280;10057;59.402;17.866;2023-05-10T04:44:35;101860.56;;;10.46;50.41
19795;BME280;10057;59.402;17.866;2023-05-10T04:47:02;101856.94;;;10.51;49.94
19795;BME280;10057;59.402;17.866;2023-05-10T04:49:29;101855.97;;;10.57;49.92
19795;BME280;10057;59.402;17.866;2023-05-10T04:51:56;101857.59;;;10.64;49.76
19795;BME280;10057;59.402;17.866;2023-05-10T04:54:23;101856.56;;;10.70;50.03
19795;BME280;10057;59.402;17.866;2023-05-10T04:56:50;101852.00;;;10.78;49.79
19795;BME280;10057;59.402;17.866;2023-05-10T04:59:16;101853.63;;;10.83;49.79
19795;BME280;10057;59.402;17.866;2023-05-10T05:01:43;101856.16;;;10.91;49.92
19795;BME280;10057;59.402;17.866;2023-05-10T05:04:10;101863.94;;;10.99;49.62
19795;BME280;10057;59.402;17.866;2023-05-10T05:06:37;101862.03;;;11.05;49.73
19795;BME280;10057;59.402;17.866;2023-05-10T05:09:04;101854.84;;;11.10;49.56
19795;BME280;10057;59.402;17.866;2023-05-10T05:11:30;101861.75;;;11.18;49.11
19795;BME280;10057;59.402;17.866;2023-05-10T05:13:57;101864.22;;;11.27;49.22
19795;BME280;10057;59.402;17.866;2023-05-10T05:16:25;101861.38;;;11.34;49.43
19795;BME280;10057;59.402;17.866;2023-05-10T05:18:53;101865.66;;;11.42;49.06
19795;BME280;10057;59.402;17.866;2023-05-10T05:21:20;101868.16;;;11.48;49.16
19795;BME280;10057;59.402;17.866;2023-05-10T05:23:46;101863.59;;;11.54;49.01
19795;BME280;10057;59.402;17.866;2023-05-10T05:26:13;101867.03;;;11.59;48.86
19795;BME280;10057;59.402;17.866;2023-05-10T05:28:41;101865.13;;;11.65;48.85
19795;BME280;10057;59.402;17.866;2023-05-10T05:31:08;101868.50;;;11.73;48.71
19795;BME280;10057;59.402;17.866;2023-05-10T05:33:36;101870.09;;;11.78;48.70
19795;BME280;10057;59.402;17.866;2023-05-10T05:36:06;101864.63;;;11.86;48.52
19795;BME280;10057;59.402;17.866;2023-05-10T05:38:32;101868.00;;;11.93;48.54
19795;BME280;10057;59.402;17.866;2023-05-10T05:40:59;101869.59;;;12.00;48.32
19795;BME280;10057;59.402;17.866;2023-05-10T05:43:26;101865.91;;;12.05;48.08
19795;BME280;10057;59.402;17.866;2023-05-10T05:45:53;101868.44;;;12.10;48.04
19795;BME280;10057;59.402;17.866;2023-05-10T05:48:21;101864.75;;;12.17;48.09
19795;BME280;10057;59.402;17.866;2023-05-10T05:50:48;101866.34;;;12.24;47.75
19795;BME280;10057;59.402;17.866;2023-05-10T05:53:14;101869.69;;;12.31;47.61
19795;BME280;10057;59.402;17.866;2023-05-10T05:55:55;101868.56;;;12.40;47.94
19795;BME280;10057;59.402;17.866;2023-05-10T05:58:22;101871.00;;;12.49;47.37
19795;BME280;10057;59.402;17.866;2023-05-10T06:00:49;101877.88;;;12.56;47.65
19795;BME280;10057;59.402;17.866;2023-05-10T06:03:16;101872.34;;;12.64;46.96
19795;BME280;10057;59.402;17.866;2023-05-10T06:05:43;101874.00;;;12.68;47.02
19795;BME280;10057;59.402;17.866;2023-05-10T06:08:10;101865.84;;;12.74;46.81
19795;BME280;10057;59.402;17.866;2023-05-10T06:10:37;101877.19;;;12.80;47.05
19795;BME280;10057;59.402;17.866;2023-05-10T06:13:04;101866.47;;;12.84;46.75
19795;BME280;10057;59.402;17.866;2023-05-10T06:15:31;101870.75;;;12.89;46.59
19795;BME280;10057;59.402;17.866;2023-05-10T06:17:59;101873.28;;;12.94;46.94
19795;BME280;10057;59.402;17.866;2023-05-10T06:20:25;101868.63;;;13.00;46.57
19795;BME280;10057;59.402;17.866;2023-05-10T06:22:52;101879.13;;;13.07;46.48
19795;BME280;10057;59.402;17.866;2023-05-10T06:25:19;101873.59;;;13.13;46.47
19795;BME280;10057;59.402;17.866;2023-05-10T06:27:46;101872.59;;;13.17;46.30
19795;BME280;10057;59.402;17.866;2023-05-10T06:30:18;101868.91;;;13.21;46.58
19795;BME280;10057;59.402;17.866;2023-05-10T06:32:44;101868.78;;;13.27;46.18
19795;BME280;10057;59.402;17.866;2023-05-10T06:35:12;101870.25;;;13.36;45.99
19795;BME280;10057;59.402;17.866;2023-05-10T06:37:39;101868.25;;;13.44;45.99
19795;BME280;10057;59.402;17.866;2023-05-10T06:40:06;101862.66;;;13.51;45.93
19795;BME280;10057;59.402;17.866;2023-05-10T06:42:33;101872.16;;;13.60;46.08
19795;BME280;10057;59.402;17.866;2023-05-10T06:45:00;101863.09;;;13.66;45.85
19795;BME280;10057;59.402;17.866;2023-05-10T06:47:27;101863.69;;;13.74;45.59
19795;BME280;10057;59.402;17.866;2023-05-10T06:49:53;101862.59;;;13.81;45.43
19795;BME280;10057;59.402;17.866;2023-05-10T06:52:20;101856.16;;;13.88;45.29
19795;BME280;10057;59.402;17.866;2023-05-10T06:54:47;101861.22;;;13.96;45.15
19795;BME280;10057;59.402;17.866;2023-05-10T06:57:13;101859.25;;;14.01;45.05
19795;BME280;10057;59.402;17.866;2023-05-10T06:59:56;101861.78;;;14.06;44.81
19795;BME280;10057;59.402;17.866;2023-05-10T07:02:23;101862.34;;;14.15;44.98
19795;BME280;10057;59.402;17.866;2023-05-10T07:04:50;101868.22;;;14.25;44.96
19795;BME280;10057;59.402;17.866;2023-05-10T07:07:18;101866.00;;;14.38;44.42
19795;BME280;10057;59.402;17.866;2023-05-10T07:09:45;101870.16;;;14.46;44.24
19795;BME280;10057;59.402;17.866;2023-05-10T07:12:12;101864.50;;;14.56;44.03
19795;BME280;10057;59.402;17.866;2023-05-10T07:14:41;101861.59;;;14.62;44.06
19795;BME280;10057;59.402;17.866;2023-05-10T07:17:08;101867.41;;;14.73;43.94
19795;BME280;10057;59.402;17.866;2023-05-10T07:19:35;101864.22;;;14.87;43.78
19795;BME280;10057;59.402;17.866;2023-05-10T07:22:02;101854.16;;;15.19;43.25
19795;BME280;10057;59.402;17.866;2023-05-10T07:24:29;101859.94;;;15.52;42.89
19795;BME280;10057;59.402;17.866;2023-05-10T07:26:57;101866.22;;;15.74;42.18
19795;BME280;10057;59.402;17.866;2023-05-10T07:29:24;101871.19;;;15.83;41.99
19795;BME280;10057;59.402;17.866;2023-05-10T07:31:51;101866.56;;;15.87;41.84
19795;BME280;10057;59.402;17.866;2023-05-10T07:34:17;101868.44;;;15.85;41.83
19795;BME280;10057;59.402;17.866;2023-05-10T07:36:44;101868.38;;;15.86;41.94
19795;BME280;10057;59.402;17.866;2023-05-10T07:39:11;101874.47;;;15.90;41.67
19795;BME280;10057;59.402;17.866;2023-05-10T07:41:46;101874.19;;;15.96;41.74
19795;BME280;10057;59.402;17.866;2023-05-10T07:44:13;101869.41;;;16.04;41.47
19795;BME280;10057;59.402;17.866;2023-05-10T07:46:39;101865.41;;;16.15;41.30
19795;BME280;10057;59.402;17.866;2023-05-10T07:49:07;101871.16;;;16.26;41.12
19795;BME280;10057;59.402;17.866;2023-05-10T07:51:33;101871.50;;;16.39;40.83
19795;BME280;10057;59.402;17.866;2023-05-10T07:54:00;101866.53;;;16.50;40.46
19795;BME280;10057;59.402;17.866;2023-05-10T07:56:29;101865.28;;;16.58;40.36
19795;BME280;10057;59.402;17.866;2023-05-10T07:58:57;101863.94;;;16.69;40.16
19795;BME280;10057;59.402;17.866;2023-05-10T08:01:24;101861.72;;;16.78;39.93
19795;BME280;10057;59.402;17.866;2023-05-10T08:03:51;101865.78;;;16.87;39.44
19795;BME280;10057;59.402;17.866;2023-05-10T08:06:20;101865.53;;;16.93;39.10
19795;BME280;10057;59.402;17.866;2023-05-10T08:08:47;101869.56;;;17.02;38.89
19795;BME280;10057;59.402;17.866;2023-05-10T08:11:17;101868.34;;;17.09;38.57
19795;BME280;10057;59.402;17.866;2023-05-10T08:13:44;101877.91;;;17.15;38.22
19795;BME280;10057;59.402;17.866;2023-05-10T08:16:11;101867.88;;;17.20;38.10
19795;BME280;10057;59.402;17.866;2023-05-10T08:18:39;101869.31;;;17.27;37.50
19795;BME280;10057;59.402;17.866;2023-05-10T08:21:06;101865.53;;;17.31;37.25
19795;BME280;10057;59.402;17.866;2023-05-10T08:23:33;101866.13;;;17.38;37.22
19795;BME280;10057;59.402;17.866;2023-05-10T08:26:00;101869.22;;;17.47;36.76
19795;BME280;10057;59.402;17.866;2023-05-10T08:28:26;101879.50;;;17.57;36.74
19795;BME280;10057;59.402;17.866;2023-05-10T08:30:53;101871.16;;;17.63;36.71
19795;BME280;10057;59.402;17.866;2023-05-10T08:33:20;101868.03;;;17.72;36.28
19795;BME280;10057;59.402;17.866;2023-05-10T08:35:47;101870.44;;;17.78;36.02
19795;BME280;10057;59.402;17.866;2023-05-10T08:38:14;101873.84;;;17.82;35.74
19795;BME280;10057;59.402;17.866;2023-05-10T08:40:42;101865.47;;;17.88;35.64
19795;BME280;10057;59.402;17.866;2023-05-10T08:43:11;101861.69;;;17.92;35.37
19795;BME280;10057;59.402;17.866;2023-05-10T08:45:40;101873.94;;;17.97;35.48
19795;BME280;10057;59.402;17.866;2023-05-10T08:48:08;101865.41;;;18.07;35.27
19795;BME280;10057;59.402;17.866;2023-05-10T08:50:40;101861.31;;;18.17;34.97
19795;BME280;10057;59.402;17.866;2023-05-10T08:53:10;101864.47;;;18.25;34.79
19795;BME280;10057;59.402;17.866;2023-05-10T08:55:38;101867.78;;;18.30;34.41
19795;BME280;10057;59.402;17.866;2023-05-10T08:58:06;101873.72;;;18.37;34.39
19795;BME280;10057;59.402;17.866;2023-05-10T09:00:33;101868.97;;;18.42;33.91
19795;BME280;10057;59.402;17.866;2023-05-10T09:03:03;101872.19;;;18.48;33.72
19795;BME280;10057;59.402;17.866;2023-05-10T09:05:30;101864.78;;;18.54;33.38
19795;BME280;10057;59.402;17.866;2023-05-10T09:07:57;101873.59;;;18.56;33.00
19795;BME280;10057;59.402;17.866;2023-05-10T09:10:25;101861.03;;;18.56;32.87
19795;BME280;10057;59.402;17.866;2023-05-10T09:12:56;101864.47;;;18.60;32.46
19795;BME280;10057;59.402;17.866;2023-05-10T09:15:25;101863.41;;;18.62;32.41
19795;BME280;10057;59.402;17.866;2023-05-10T09:17:52;101872.97;;;18.68;32.73
19795;BME280;10057;59.402;17.866;2023-05-10T09:20:21;101863.50;;;18.78;32.28
19795;BME280;10057;59.402;17.866;2023-05-10T09:22:47;101878.25;;;18.87;32.32
19795;BME280;10057;59.402;17.866;2023-05-10T09:25:15;101875.06;;;18.96;31.98
19795;BME280;10057;59.402;17.866;2023-05-10T09:27:47;101871.94;;;19.04;31.85
19795;BME280;10057;59.402;17.866;2023-05-10T09:30:22;101864.50;;;19.09;31.59
19795;BME280;10057;59.402;17.866;2023-05-10T09:32:50;101876.75;;;19.14;31.54
19795;BME280;10057;59.402;17.866;2023-05-10T09:35:20;101864.69;;;19.22;31.25
19795;BME280;10057;59.402;17.866;2023-05-10T09:37:49;101866.44;;;19.23;31.16
19795;BME280;10057;59.402;17.866;2023-05-10T09:40:21;101873.31;;;19.28;30.92
19795;BME280;10057;59.402;17.866;2023-05-10T09:43:07;101865.81;;;19.33;31.04
19795;BME280;10057;59.402;17.866;2023-05-10T09:45:35;101864.53;;;19.40;31.15
19795;BME280;10057;59.402;17.866;2023-05-10T09:48:05;101862.97;;;19.52;30.96
19795;BME280;10057;59.402;17.866;2023-05-10T09:50:32;101877.81;;;19.59;30.97
19795;BME280;10057;59.402;17.866;2023-05-10T09:53:02;101867.38;;;19.69;30.43
19795;BME280;10057;59.402;17.866;2023-05-10T09:58:06;101867.09;;;19.89;30.41
19795;BME280;10057;59.402;17.866;2023-05-10T10:00:39;101871.88;;;20.00;30.45
19795;BME280;10057;59.402;17.866;2023-05-10T10:03:12;101867.56;;;20.12;30.00
19795;BME280;10057;59.402;17.866;2023-05-10T10:05:41;101867.97;;;20.20;29.62
19795;BME280;10057;59.402;17.866;2023-05-10T10:08:10;101869.72;;;20.21;29.76
19795;BME280;10057;59.402;17.866;2023-05-10T10:10:37;101861.19;;;20.29;29.49
19795;BME280;10057;59.402;17.866;2023-05-10T10:13:07;101863.91;;;20.43;29.60
19795;BME280;10057;59.402;17.866;2023-05-10T10:15:34;101876.75;;;20.54;29.26
19795;BME280;10057;59.402;17.866;2023-05-10T10:18:01;101877.44;;;20.57;28.86
19795;BME280;10057;59.402;17.866;2023-05-10T10:20:30;101860.31;;;20.58;28.76
19795;BME280;10057;59.402;17.866;2023-05-10T10:22:56;101864.16;;;20.69;29.22
19795;BME280;10057;59.402;17.866;2023-05-10T10:25:24;101855.59;;;20.76;28.37
19795;BME280;10057;59.402;17.866;2023-05-10T10:30:21;101870.81;;;20.77;28.58
19795;BME280;10057;59.402;17.866;2023-05-10T10:35:53;101850.97;;;20.93;28.24
19795;BME280;10057;59.402;17.866;2023-05-10T10:38:20;101862.25;;;20.99;28.02
19795;BME280;10057;59.402;17.866;2023-05-10T10:40:56;101861.63;;;21.09;28.10
19795;BME280;10057;59.402;17.866;2023-05-10T10:43:28;101845.94;;;21.15;28.03
19795;BME280;10057;59.402;17.866;2023-05-10T10:46:15;101851.72;;;21.23;28.15
19795;BME280;10057;59.402;17.866;2023-05-10T10:48:50;101847.66;;;21.30;27.60
19795;BME280;10057;59.402;17.866;2023-05-10T10:51:18;101840.31;;;21.33;27.42
19795;BME280;10057;59.402;17.866;2023-05-10T10:53:47;101849.94;;;21.37;27.29
19795;BME280;10057;59.402;17.866;2023-05-10T10:56:14;101853.25;;;21.42;27.29
19795;BME280;10057;59.402;17.866;2023-05-10T10:58:49;101841.84;;;21.51;27.19
19795;BME280;10057;59.402;17.866;2023-05-10T11:01:20;101839.88;;;21.53;27.20
19795;BME280;10057;59.402;17.866;2023-05-10T11:06:33;101830.84;;;21.54;26.97
19795;BME280;10057;59.402;17.866;2023-05-10T11:09:11;101842.91;;;21.48;26.87
19795;BME280;10057;59.402;17.866;2023-05-10T11:12:07;101843.97;;;21.46;26.93
19795;BME280;10057;59.402;17.866;2023-05-10T11:14:34;101843.97;;;21.46;26.78
19795;BME280;10057;59.402;17.866;2023-05-10T11:17:01;101848.63;;;21.44;26.49
19795;BME280;10057;59.402;17.866;2023-05-10T11:19:28;101838.38;;;21.49;26.63
19795;BME280;10057;59.402;17.866;2023-05-10T11:24:31;101836.25;;;21.54;26.06
19795;BME280;10057;59.402;17.866;2023-05-10T11:26:58;101845.41;;;21.51;26.15
19795;BME280;10057;59.402;17.866;2023-05-10T11:29:24;101844.81;;;21.46;26.54
19795;BME280;10057;59.402;17.866;2023-05-10T11:31:56;101840.28;;;21.47;26.40
19795;BME280;10057;59.402;17.866;2023-05-10T11:34:28;101834.69;;;21.50;26.19
19795;BME280;10057;59.402;17.866;2023-05-10T11:36:57;101835.28;;;21.55;26.23
19795;BME280;10057;59.402;17.866;2023-05-10T11:39:29;101838.06;;;21.53;25.84
19795;BME280;10057;59.402;17.866;2023-05-10T11:41:57;101840.09;;;21.50;25.94
19795;BME280;10057;59.402;17.866;2023-05-10T11:44:29;101842.78;;;21.50;26.22
19795;BME280;10057;59.402;17.866;2023-05-10T11:47:00;101850.03;;;21.49;25.71
19795;BME280;10057;59.402;17.866;2023-05-10T11:49:27;101828.53;;;21.48;25.83
19795;BME280;10057;59.402;17.866;2023-05-10T11:52:04;101853.31;;;21.55;25.97
19795;BME280;10057;59.402;17.866;2023-05-10T11:54:30;101855.16;;;21.54;25.54
19795;BME280;10057;59.402;17.866;2023-05-10T11:56:57;101847.63;;;21.45;25.39
19795;BME280;10057;59.402;17.866;2023-05-10T11:59:24;101852.66;;;21.37;25.65
19795;BME280;10057;59.402;17.866;2023-05-10T12:01:51;101842.84;;;21.36;25.56
19795;BME280;10057;59.402;17.866;2023-05-10T12:04:18;101838.88;;;21.27;25.26
19795;BME280;10057;59.402;17.866;2023-05-10T12:06:45;101841.97;;;21.21;25.48
19795;BME280;10057;59.402;17.866;2023-05-10T12:09:14;101828.69;;;21.18;25.73
19795;BME280;10057;59.402;17.866;2023-05-10T12:11:43;101838.63;;;21.17;25.89
19795;BME280;10057;59.402;17.866;2023-05-10T12:14:10;101834.53;;;21.24;26.08
19795;BME280;10057;59.402;17.866;2023-05-10T12:16:37;101837.44;;;21.36;25.95
19795;BME280;10057;59.402;17.866;2023-05-10T12:19:04;101827.69;;;21.47;25.75
19795;BME280;10057;59.402;17.866;2023-05-10T12:21:32;101821.56;;;21.58;25.88
19795;BME280;10057;59.402;17.866;2023-05-10T12:24:02;101812.44;;;21.73;25.53
19795;BME280;10057;59.402;17.866;2023-05-10T12:26:29;101834.28;;;21.83;25.44
19795;BME280;10057;59.402;17.866;2023-05-10T12:29:16;101824.78;;;21.90;25.66
19795;BME280;10057;59.402;17.866;2023-05-10T12:31:57;101825.78;;;21.89;25.79
19795;BME280;10057;59.402;17.866;2023-05-10T12:34:33;101821.44;;;21.87;25.55
19795;BME280;10057;59.402;17.866;2023-05-10T12:37:00;101821.22;;;21.90;25.78
19795;BME280;10057;59.402;17.866;2023-05-10T12:39:41;101821.56;;;21.98;25.87
19795;BME280;10057;59.402;17.866;2023-05-10T12:42:09;101818.81;;;22.12;25.54
19795;BME280;10057;59.402;17.866;2023-05-10T12:44:36;101816.56;;;22.19;25.62
19795;BME280;10057;59.402;17.866;2023-05-10T12:47:02;101827.72;;;22.27;25.41
19795;BME280;10057;59.402;17.866;2023-05-10T12:49:29;101823.94;;;22.30;25.32
19795;BME280;10057;59.402;17.866;2023-05-10T12:51:56;101817.53;;;22.31;25.17
19795;BME280;10057;59.402;17.866;2023-05-10T12:54:22;101830.84;;;22.34;25.23
19795;BME280;10057;59.402;17.866;2023-05-10T12:56:49;101822.31;;;22.40;25.08
19795;BME280;10057;59.402;17.866;2023-05-10T12:59:16;101822.63;;;22.48;24.97
19795;BME280;10057;59.402;17.866;2023-05-10T13:01:42;101820.91;;;22.47;24.72
19795;BME280;10057;59.402;17.866;2023-05-10T13:04:09;101819.28;;;22.44;24.90
19795;BME280;10057;59.402;17.866;2023-05-10T13:06:36;101827.28;;;22.46;24.78
19795;BME280;10057;59.402;17.866;2023-05-10T13:09:03;101825.25;;;22.50;24.69
19795;BME280;10057;59.402;17.866;2023-05-10T13:11:30;101815.06;;;22.53;24.82
19795;BME280;10057;59.402;17.866;2023-05-10T13:13:56;101815.91;;;22.66;24.72
19795;BME280;10057;59.402;17.866;2023-05-10T13:16:23;101815.03;;;22.79;24.62
19795;BME280;10057;59.402;17.866;2023-05-10T13:18:50;101822.84;;;22.70;23.91
19795;BME280;10057;59.402;17.866;2023-05-10T13:21:17;101814.63;;;22.59;24.14
19795;BME280;10057;59.402;17.866;2023-05-10T13:23:43;101831.06;;;22.56;24.08